sensor_id;sensor_type;location;lat;lon;timestamp;pressure;altitude;pressure_sealevel;temperature;humidity
50093;BME280;35974;47.752;10.290;2022-08-11T00:01:03;94266.88;;;14.64;58.86
50093;BME280;35974;47.752;10.290;2022-08-11T00:03:31;94271.91;;;14.84;58.11
50093;BME280;35974;47.752;10.290;2022-08-11T00:06:09;94268.53;;;14.95;58.20
50093;BME280;35974;47.752;10.290;2022-08-11T00:08:37;94275.13;;;14.86;57.88
50093;BME280;35974;47.752;10.290;2022-08-11T00:11:06;94267.50;;;15.15;57.86
50093;BME280;35974;47.752;10.290;2022-08-11T00:13:39;94279.06;;;14.95;58.64
50093;BME280;35974;47.752;10.290;2022-08-11T00:16:21;94281.94;;;14.94;58.04
50093;BME280;35974;47.752;10.290;2022-08-11T00:18:51;94283.47;;;15.01;59.04
50093;BME280;35974;47.752;10.290;2022-08-11T00:21:39;94258.88;;;14.89;57.99
50093;BME280;35974;47.752;10.290;2022-08-11T00:24:34;94265.63;;;14.67;59.02
50093;BME280;35974;47.752;10.290;2022-08-11T00:27:19;94264.88;;;14.59;60.49
50093;BME280;35974;47.752;10.290;2022-08-11T00:29:52;94287.00;;;14.77;60.32
50093;BME280;35974;47.752;10.290;2022-08-11T00:32:19;94244.22;;;14.56;60.04
50093;BME280;35974;47.752;10.290;2022-08-11T00:34:47;94250.38;;;14.50;61.69
50093;BME280;35974;47.752;10.290;2022-08-11T00:37:19;94290.00;;;14.55;61.81
50093;BME280;35974;47.752;10.290;2022-08-11T00:39:50;94249.38;;;14.26;61.50
50093;BME280;35974;47.752;10.290;2022-08-11T00:42:31;94287.00;;;14.33;61.48
50093;BME280;35974;47.752;10.290;2022-08-11T00:45:25;94290.28;;;14.28;62.14
50093;BME280;35974;47.752;10.290;2022-08-11T00:53:15;94287.94;;;13.88;62.92
50093;BME280;35974;47.752;10.290;2022-08-11T00:56:21;94286.16;;;13.82;63.84
50093;BME280;35974;47.752;10.290;2022-08-11T01:02:38;94285.47;;;13.68;64.21
50093;BME280;35974;47.752;10.290;2022-08-11T01:05:33;94262.78;;;13.42;64.98
50093;BME280;35974;47.752;10.290;2022-08-11T01:30:46;94231.56;;;12.69;66.15
50093;BME280;35974;47.752;10.290;2022-08-11T01:37:26;94256.00;;;12.76;66.87
50093;BME280;35974;47.752;10.290;2022-08-11T01:51:22;94225.44;;;12.23;68.31
50093;BME280;35974;47.752;10.290;2022-08-11T01:53:51;94249.63;;;12.38;67.93
50093;BME280;35974;47.752;10.290;2022-08-11T01:56:32;94243.16;;;12.34;68.23
50093;BME280;35974;47.752;10.290;2022-08-11T01:59:22;94212.97;;;12.05;68.71
50093;BME280;35974;47.752;10.290;2022-08-11T02:07:51;94247.25;;;12.03;68.73
50093;BME280;35974;47.752;10.290;2022-08-11T02:13:47;94255.72;;;11.85;67.80
50093;BME280;35974;47.752;10.290;2022-08-11T02:16:20;94252.69;;;11.75;68.71
50093;BME280;35974;47.752;10.290;2022-08-11T02:18:54;94250.88;;;11.62;69.34
50093;BME280;35974;47.752;10.290;2022-08-11T02:21:58;94245.03;;;11.73;69.22
50093;BME280;35974;47.752;10.290;2022-08-11T02:24:52;94212.16;;;11.51;68.95
50093;BME280;35974;47.752;10.290;2022-08-11T02:27:28;94221.84;;;11.44;69.55
50093;BME280;35974;47.752;10.290;2022-08-11T02:30:13;94258.94;;;11.61;69.66
50093;BME280;35974;47.752;10.290;2022-08-11T02:33:00;94243.59;;;11.44;69.87
50093;BME280;35974;47.752;10.290;2022-08-11T02:36:06;94244.19;;;11.53;69.58
50093;BME280;35974;47.752;10.290;2022-08-11T02:38:52;94247.22;;;11.50;69.71
50093;BME280;35974;47.752;10.290;2022-08-11T02:41:35;94214.50;;;11.12;70.69
50093;BME280;35974;47.752;10.290;2022-08-11T02:44:38;94240.75;;;11.32;69.97
50093;BME280;35974;47.752;10.290;2022-08-11T02:50:39;94238.75;;;11.34;70.43
50093;BME280;35974;47.752;10.290;2022-08-11T02:53:26;94243.53;;;11.17;70.29
50093;BME280;35974;47.752;10.290;2022-08-11T02:59:25;94240.69;;;11.06;71.99
50093;BME280;35974;47.752;10.290;2022-08-11T03:10:19;94244.28;;;11.05;72.27
50093;BME280;35974;47.752;10.290;2022-08-11T03:13:09;94244.28;;;11.05;71.62
50093;BME280;35974;47.752;10.290;2022-08-11T03:19:12;94233.97;;;10.83;71.64
50093;BME280;35974;47.752;10.290;2022-08-11T03:21:53;94237.75;;;10.74;71.71
50093;BME280;35974;47.752;10.290;2022-08-11T03:24:50;94234.91;;;10.69;72.17
50093;BME280;35974;47.752;10.290;2022-08-11T03:32:39;94224.78;;;10.52;72.27
50093;BME280;35974;47.752;10.290;2022-08-11T03:35:11;94228.84;;;10.61;71.61
50093;BME280;35974;47.752;10.290;2022-08-11T03:37:59;94221.50;;;10.37;71.88
50093;BME280;35974;47.752;10.290;2022-08-11T03:40:58;94244.50;;;10.48;71.68
50093;BME280;35974;47.752;10.290;2022-08-11T03:44:37;94240.03;;;10.42;72.42
50093;BME280;35974;47.752;10.290;2022-08-11T03:48:01;94241.91;;;10.26;73.88
50093;BME280;35974;47.752;10.290;2022-08-11T03:50:53;94234.34;;;10.32;74.58
50093;BME280;35974;47.752;10.290;2022-08-11T03:54:02;94242.00;;;10.33;73.37
50093;BME280;35974;47.752;10.290;2022-08-11T04:02:29;94243.66;;;10.41;72.69
50093;BME280;35974;47.752;10.290;2022-08-11T04:17:17;94221.38;;;10.23;74.40
50093;BME280;35974;47.752;10.290;2022-08-11T04:20:18;94229.09;;;10.32;73.97
50093;BME280;35974;47.752;10.290;2022-08-11T04:23:09;94224.25;;;10.29;73.23
50093;BME280;35974;47.752;10.290;2022-08-11T04:41:42;94223.09;;;10.38;75.31
50093;BME280;35974;47.752;10.290;2022-08-11T04:50:01;94238.56;;;10.74;75.34
50093;BME280;35974;47.752;10.290;2022-08-11T04:53:06;94216.78;;;10.67;75.56
50093;BME280;35974;47.752;10.290;2022-08-11T04:56:13;94201.53;;;10.71;75.23
50093;BME280;35974;47.752;10.290;2022-08-11T05:05:08;94257.28;;;11.26;76.26
50093;BME280;35974;47.752;10.290;2022-08-11T05:17:31;94252.88;;;11.73;74.36
50093;BME280;35974;47.752;10.290;2022-08-11T05:20:20;94227.47;;;11.67;74.98
50093;BME280;35974;47.752;10.290;2022-08-11T05:23:09;94250.69;;;11.97;74.88
50093;BME280;35974;47.752;10.290;2022-08-11T05:25:57;94258.56;;;12.11;74.38
50093;BME280;35974;47.752;10.290;2022-08-11T05:29:24;94238.38;;;12.18;74.28
50093;BME280;35974;47.752;10.290;2022-08-11T05:32:26;94215.16;;;12.15;74.16
50093;BME280;35974;47.752;10.290;2022-08-11T05:35:15;94217.75;;;12.28;74.22
50093;BME280;35974;47.752;10.290;2022-08-11T05:38:20;94208.47;;;12.32;73.62
50093;BME280;35974;47.752;10.290;2022-08-11T05:41:07;94223.31;;;12.58;73.47
50093;BME280;35974;47.752;10.290;2022-08-11T05:43:54;94230.50;;;12.83;73.17
50093;BME280;35974;47.752;10.290;2022-08-11T05:46:48;94249.81;;;13.02;72.60
50093;BME280;35974;47.752;10.290;2022-08-11T05:49:33;94243.72;;;13.08;72.13
50093;BME280;35974;47.752;10.290;2022-08-11T05:52:29;94223.88;;;13.12;71.40
50093;BME280;35974;47.752;10.290;2022-08-11T05:55:29;94224.16;;;13.43;70.43
50093;BME280;35974;47.752;10.290;2022-08-11T05:58:38;94223.75;;;13.71;68.80
50093;BME280;35974;47.752;10.290;2022-08-11T06:01:09;94233.56;;;13.82;68.95
50093;BME280;35974;47.752;10.290;2022-08-11T06:03:38;94227.75;;;13.99;68.13
50093;BME280;35974;47.752;10.290;2022-08-11T06:06:28;94240.81;;;14.12;67.73
50093;BME280;35974;47.752;10.290;2022-08-11T06:08:56;94207.09;;;14.02;67.20
50093;BME280;35974;47.752;10.290;2022-08-11T06:11:24;94222.25;;;14.25;67.58
50093;BME280;35974;47.752;10.290;2022-08-11T06:14:10;94235.00;;;14.47;66.53
50093;BME280;35974;47.752;10.290;2022-08-11T06:16:40;94228.16;;;14.46;66.90
50093;BME280;35974;47.752;10.290;2022-08-11T06:19:07;94244.97;;;14.63;66.11
50093;BME280;35974;47.752;10.290;2022-08-11T06:21:34;94213.81;;;14.60;65.76
50093;BME280;35974;47.752;10.290;2022-08-11T06:24:04;94235.91;;;14.78;65.56
50093;BME280;35974;47.752;10.290;2022-08-11T06:26:36;94219.53;;;14.76;65.13
50093;BME280;35974;47.752;10.290;2022-08-11T06:29:24;94212.34;;;14.83;64.72
50093;BME280;35974;47.752;10.290;2022-08-11T06:32:12;94240.34;;;15.14;64.15
50093;BME280;35974;47.752;10.290;2022-08-11T06:34:57;94215.66;;;15.09;63.69
50093;BME280;35974;47.752;10.290;2022-08-11T06:43:01;94232.81;;;15.60;62.60
50093;BME280;35974;47.752;10.290;2022-08-11T06:48:16;94217.50;;;15.81;61.27
50093;BME280;35974;47.752;10.290;2022-08-11T06:51:03;94213.91;;;15.75;60.91
50093;BME280;35974;47.752;10.290;2022-08-11T06:53:54;94212.50;;;15.72;61.74
50093;BME280;35974;47.752;10.290;2022-08-11T06:56:35;94220.28;;;16.09;60.84
50093;BME280;35974;47.752;10.290;2022-08-11T06:59:42;94230.72;;;16.04;61.28
50093;BME280;35974;47.752;10.290;2022-08-11T07:02:44;94241.50;;;16.15;60.68
50093;BME280;35974;47.752;10.290;2022-08-11T07:14:24;94215.22;;;16.43;60.20
50093;BME280;35974;47.752;10.290;2022-08-11T07:17:19;94236.78;;;16.64;60.06
50093;BME280;35974;47.752;10.290;2022-08-11T07:19:57;94231.41;;;16.59;60.16
50093;BME280;35974;47.752;10.290;2022-08-11T07:22:53;94242.28;;;16.74;59.83
50093;BME280;35974;47.752;10.290;2022-08-11T07:25:41;94244.78;;;16.93;59.89
50093;BME280;35974;47.752;10.290;2022-08-11T07:28:29;94249.38;;;17.09;58.87
50093;BME280;35974;47.752;10.290;2022-08-11T07:31:29;94242.16;;;17.22;58.20
50093;BME280;35974;47.752;10.290;2022-08-11T07:34:31;94237.56;;;17.29;58.12
50093;BME280;35974;47.752;10.290;2022-08-11T07:37:03;94229.63;;;17.29;58.66
50093;BME280;35974;47.752;10.290;2022-08-11T07:39:54;94230.19;;;17.60;57.71
50093;BME280;35974;47.752;10.290;2022-08-11T07:42:24;94227.03;;;17.63;57.71
50093;BME280;35974;47.752;10.290;2022-08-11T07:44:54;94219.44;;;17.66;57.53
50093;BME280;35974;47.752;10.290;2022-08-11T07:47:46;94197.38;;;17.61;57.64
50093;BME280;35974;47.752;10.290;2022-08-11T07:50:31;94221.38;;;17.71;58.05
50093;BME280;35974;47.752;10.290;2022-08-11T07:53:21;94196.78;;;17.87;56.81
50093;BME280;35974;47.752;10.290;2022-08-11T07:55:48;94198.69;;;17.92;57.53
50093;BME280;35974;47.752;10.290;2022-08-11T07:58:22;94215.06;;;18.06;58.02
50093;BME280;35974;47.752;10.290;2022-08-11T08:01:21;94216.94;;;18.27;57.00
50093;BME280;35974;47.752;10.290;2022-08-11T08:04:09;94222.53;;;18.48;57.11
50093;BME280;35974;47.752;10.290;2022-08-11T08:06:56;94221.56;;;18.54;57.44
50093;BME280;35974;47.752;10.290;2022-08-11T08:09:49;94205.97;;;18.58;57.05
50093;BME280;35974;47.752;10.290;2022-08-11T08:12:39;94200.63;;;18.75;57.18
50093;BME280;35974;47.752;10.290;2022-08-11T08:15:25;94202.38;;;18.86;54.54
50093;BME280;35974;47.752;10.290;2022-08-11T08:18:13;94203.84;;;19.21;53.24
50093;BME280;35974;47.752;10.290;2022-08-11T08:20:53;94205.94;;;19.19;52.92
50093;BME280;35974;47.752;10.290;2022-08-11T08:23:26;94223.09;;;19.33;53.04
50093;BME280;35974;47.752;10.290;2022-08-11T08:26:03;94205.88;;;19.41;53.19
50093;BME280;35974;47.752;10.290;2022-08-11T08:29:00;94228.41;;;19.66;52.30
50093;BME280;35974;47.752;10.290;2022-08-11T08:31:48;94231.50;;;19.80;53.30
50093;BME280;35974;47.752;10.290;2022-08-11T08:34:16;94217.22;;;19.86;52.21
50093;BME280;35974;47.752;10.290;2022-08-11T08:36:49;94201.78;;;19.83;51.99
50093;BME280;35974;47.752;10.290;2022-08-11T08:39:28;94211.50;;;20.04;52.84
50093;BME280;35974;47.752;10.290;2022-08-11T08:42:10;94211.50;;;20.04;53.04
50093;BME280;35974;47.752;10.290;2022-08-11T08:44:48;94198.03;;;20.16;52.03
50093;BME280;35974;47.752;10.290;2022-08-11T08:47:17;94223.50;;;20.49;51.22
50093;BME280;35974;47.752;10.290;2022-08-11T08:50:26;94184.81;;;20.21;52.35
50093;BME280;35974;47.752;10.290;2022-08-11T08:53:21;94226.69;;;20.46;52.15
50093;BME280;35974;47.752;10.290;2022-08-11T08:56:09;94220.97;;;20.65;51.60
50093;BME280;35974;47.752;10.290;2022-08-11T08:58:37;94225.75;;;20.68;50.97
50093;BME280;35974;47.752;10.290;2022-08-11T09:01:05;94205.03;;;20.65;50.29
50093;BME280;35974;47.752;10.290;2022-08-11T09:03:35;94200.97;;;20.62;51.16
50093;BME280;35974;47.752;10.290;2022-08-11T09:06:23;94198.59;;;20.61;50.85
50093;BME280;35974;47.752;10.290;2022-08-11T09:08:50;94214.09;;;20.74;50.25
50093;BME280;35974;47.752;10.290;2022-08-11T09:11:21;94217.88;;;20.89;50.82
50093;BME280;35974;47.752;10.290;2022-08-11T09:14:08;94204.09;;;21.02;50.53
50093;BME280;35974;47.752;10.290;2022-08-11T09:16:40;94209.94;;;20.99;50.41
50093;BME280;35974;47.752;10.290;2022-08-11T09:19:08;94209.72;;;21.06;50.60
50093;BME280;35974;47.752;10.290;2022-08-11T09:21:39;94201.94;;;20.94;49.71
50093;BME280;35974;47.752;10.290;2022-08-11T09:24:18;94223.84;;;21.21;50.54
50093;BME280;35974;47.752;10.290;2022-08-11T09:27:05;94217.75;;;21.21;50.04
50093;BME280;35974;47.752;10.290;2022-08-11T09:29:32;94191.91;;;21.21;48.96
50093;BME280;35974;47.752;10.290;2022-08-11T09:32:06;94221.25;;;21.37;48.87
50093;BME280;35974;47.752;10.290;2022-08-11T09:34:34;94217.59;;;21.53;49.60
50093;BME280;35974;47.752;10.290;2022-08-11T09:37:03;94233.56;;;21.69;49.49
50093;BME280;35974;47.752;10.290;2022-08-11T09:40:19;94226.94;;;21.82;48.81
50093;BME280;35974;47.752;10.290;2022-08-11T09:42:56;94236.28;;;22.05;49.25
50093;BME280;35974;47.752;10.290;2022-08-11T09:45:50;94229.34;;;22.24;51.12
50093;BME280;35974;47.752;10.290;2022-08-11T09:48:22;94241.06;;;22.28;49.91
50093;BME280;35974;47.752;10.290;2022-08-11T09:51:08;94220.28;;;21.84;50.01
50093;BME280;35974;47.752;10.290;2022-08-11T09:53:40;94213.34;;;22.14;49.91
50093;BME280;35974;47.752;10.290;2022-08-11T09:56:28;94234.13;;;22.27;50.94
50093;BME280;35974;47.752;10.290;2022-08-11T09:59:17;94214.41;;;22.28;50.89
50093;BME280;35974;47.752;10.290;2022-08-11T10:01:48;94232.50;;;22.67;50.24
50093;BME280;35974;47.752;10.290;2022-08-11T10:04:22;94232.00;;;22.14;49.25
50093;BME280;35974;47.752;10.290;2022-08-11T10:06:52;94208.56;;;22.11;49.85
50093;BME280;35974;47.752;10.290;2022-08-11T10:09:45;94234.13;;;22.27;50.13
50093;BME280;35974;47.752;10.290;2022-08-11T10:12:28;94243.22;;;22.37;49.52
50093;BME280;35974;47.752;10.290;2022-08-11T10:15:07;94235.69;;;22.80;49.38
50093;BME280;35974;47.752;10.290;2022-08-11T10:17:56;94223.31;;;23.10;47.16
50093;BME280;35974;47.752;10.290;2022-08-11T10:20:44;94230.66;;;23.38;47.68
50093;BME280;35974;47.752;10.290;2022-08-11T10:23:15;94191.13;;;23.40;46.95
50093;BME280;35974;47.752;10.290;2022-08-11T10:26:23;94218.88;;;23.89;45.53
50093;BME280;35974;47.752;10.290;2022-08-11T10:29:10;94228.66;;;24.04;46.92
50093;BME280;35974;47.752;10.290;2022-08-11T10:32:10;94224.59;;;24.41;45.41
50093;BME280;35974;47.752;10.290;2022-08-11T10:34:58;94228.03;;;24.18;46.35
50093;BME280;35974;47.752;10.290;2022-08-11T10:37:27;94226.88;;;24.29;45.35
50093;BME280;35974;47.752;10.290;2022-08-11T10:40:21;94222.38;;;24.54;45.08
50093;BME280;35974;47.752;10.290;2022-08-11T10:42:54;94209.38;;;24.07;43.63
50093;BME280;35974;47.752;10.290;2022-08-11T10:45:43;94187.44;;;24.10;45.52
50093;BME280;35974;47.752;10.290;2022-08-11T10:48:34;94226.44;;;24.46;46.15
50093;BME280;35974;47.752;10.290;2022-08-11T10:51:01;94204.88;;;24.32;43.86
50093;BME280;35974;47.752;10.290;2022-08-11T10:53:50;94217.00;;;24.54;45.41
50093;BME280;35974;47.752;10.290;2022-08-11T10:56:52;94208.44;;;24.57;45.09
50093;BME280;35974;47.752;10.290;2022-08-11T10:59:38;94193.47;;;24.56;43.57
50093;BME280;35974;47.752;10.290;2022-08-11T11:02:12;94210.44;;;24.70;43.97
50093;BME280;35974;47.752;10.290;2022-08-11T11:04:51;94206.94;;;24.40;44.05
50093;BME280;35974;47.752;10.290;2022-08-11T11:07:28;94208.66;;;24.31;45.62
50093;BME280;35974;47.752;10.290;2022-08-11T11:10:00;94205.59;;;24.43;44.53
50093;BME280;35974;47.752;10.290;2022-08-11T11:12:53;94219.31;;;24.65;44.16
50093;BME280;35974;47.752;10.290;2022-08-11T11:15:43;94196.91;;;24.27;43.70
50093;BME280;35974;47.752;10.290;2022-08-11T11:18:33;94220.22;;;24.56;43.74
50093;BME280;35974;47.752;10.290;2022-08-11T11:21:09;94188.66;;;24.53;43.57
50093;BME280;35974;47.752;10.290;2022-08-11T11:23:42;94190.53;;;24.81;44.09
50093;BME280;35974;47.752;10.290;2022-08-11T11:29:47;94214.28;;;25.31;44.16
50093;BME280;35974;47.752;10.290;2022-08-11T11:37:44;94194.47;;;25.08;41.77
50093;BME280;35974;47.752;10.290;2022-08-11T11:40:31;94195.50;;;25.12;43.02
50093;BME280;35974;47.752;10.290;2022-08-11T11:42:58;94216.75;;;25.28;43.19
50093;BME280;35974;47.752;10.290;2022-08-11T11:45:25;94201.50;;;25.47;41.13
50093;BME280;35974;47.752;10.290;2022-08-11T11:47:54;94204.56;;;25.60;42.67
50093;BME280;35974;47.752;10.290;2022-08-11T11:50:32;94195.66;;;25.64;42.38
50093;BME280;35974;47.752;10.290;2022-08-11T11:53:09;94201.22;;;25.68;41.63
50093;BME280;35974;47.752;10.290;2022-08-11T11:55:39;94197.75;;;25.48;41.15
50093;BME280;35974;47.752;10.290;2022-08-11T11:58:06;94177.69;;;25.21;42.18
50093;BME280;35974;47.752;10.290;2022-08-11T12:01:03;94176.88;;;25.45;41.10
50093;BME280;35974;47.752;10.290;2022-08-11T12:03:48;94164.56;;;25.44;41.30
50093;BME280;35974;47.752;10.290;2022-08-11T12:06:17;94186.56;;;25.79;42.29
50093;BME280;35974;47.752;10.290;2022-08-11T12:08:48;94173.09;;;25.84;41.78
50093;BME280;35974;47.752;10.290;2022-08-11T12:11:16;94189.47;;;26.02;41.03
50093;BME280;35974;47.752;10.290;2022-08-11T12:14:05;94189.50;;;26.16;41.91
50093;BME280;35974;47.752;10.290;2022-08-11T12:16:44;94162.38;;;26.03;39.80
50093;BME280;35974;47.752;10.290;2022-08-11T12:19:15;94169.44;;;26.13;39.22
50093;BME280;35974;47.752;10.290;2022-08-11T12:21:43;94173.97;;;25.99;41.49
50093;BME280;35974;47.752;10.290;2022-08-11T12:24:29;94165.91;;;26.31;41.68
50093;BME280;35974;47.752;10.290;2022-08-11T12:27:16;94165.44;;;26.57;41.93
50093;BME280;35974;47.752;10.290;2022-08-11T12:29:55;94153.50;;;26.63;41.22
50093;BME280;35974;47.752;10.290;2022-08-11T12:32:25;94168.56;;;26.78;40.09
50093;BME280;35974;47.752;10.290;2022-08-11T12:34:52;94141.88;;;26.54;38.27
50093;BME280;35974;47.752;10.290;2022-08-11T12:37:44;94174.44;;;26.34;40.83
50093;BME280;35974;47.752;10.290;2022-08-11T12:40:17;94147.00;;;26.23;39.63
50093;BME280;35974;47.752;10.290;2022-08-11T12:43:27;94154.34;;;26.17;40.40
50093;BME280;35974;47.752;10.290;2022-08-11T12:46:24;94162.75;;;26.57;40.04
50093;BME280;35974;47.752;10.290;2022-08-11T12:48:58;94129.16;;;26.46;40.09
50093;BME280;35974;47.752;10.290;2022-08-11T12:51:49;94152.66;;;26.21;40.16
50093;BME280;35974;47.752;10.290;2022-08-11T12:55:12;94157.22;;;26.67;40.22
50093;BME280;35974;47.752;10.290;2022-08-11T12:58:00;94154.28;;;26.36;40.06
50093;BME280;35974;47.752;10.290;2022-08-11T13:00:46;94155.41;;;26.49;40.98
50093;BME280;35974;47.752;10.290;2022-08-11T13:03:38;94154.56;;;26.21;39.67
50093;BME280;35974;47.752;10.290;2022-08-11T13:06:23;94135.91;;;26.29;39.51
50093;BME280;35974;47.752;10.290;2022-08-11T13:08:50;94140.34;;;26.20;40.79
50093;BME280;35974;47.752;10.290;2022-08-11T13:11:19;94129.38;;;26.03;40.48
50093;BME280;35974;47.752;10.290;2022-08-11T13:14:26;94150.75;;;26.08;39.71
50093;BME280;35974;47.752;10.290;2022-08-11T13:16:52;94161.19;;;25.90;40.01
50093;BME280;35974;47.752;10.290;2022-08-11T13:19:40;94139.66;;;25.95;40.46
50093;BME280;35974;47.752;10.290;2022-08-11T13:22:12;94140.66;;;25.67;39.69
50093;BME280;35974;47.752;10.290;2022-08-11T13:24:41;94138.41;;;25.74;40.70
50093;BME280;35974;47.752;10.290;2022-08-11T13:27:08;94138.44;;;26.07;39.01
50093;BME280;35974;47.752;10.290;2022-08-11T13:29:40;94124.34;;;26.15;39.73
50093;BME280;35974;47.752;10.290;2022-08-11T13:32:07;94112.44;;;26.21;38.58
50093;BME280;35974;47.752;10.290;2022-08-11T13:34:35;94085.00;;;26.10;38.12
50093;BME280;35974;47.752;10.290;2022-08-11T13:37:08;94115.88;;;26.69;38.41
50093;BME280;35974;47.752;10.290;2022-08-11T13:39:44;94114.28;;;26.81;39.28
50093;BME280;35974;47.752;10.290;2022-08-11T13:42:20;94129.56;;;27.09;38.67
50093;BME280;35974;47.752;10.290;2022-08-11T13:44:53;94132.81;;;27.33;37.29
50093;BME280;35974;47.752;10.290;2022-08-11T13:47:26;94130.31;;;27.23;38.26
50093;BME280;35974;47.752;10.290;2022-08-11T13:49:53;94093.88;;;26.94;37.45
50093;BME280;35974;47.752;10.290;2022-08-11T13:52:21;94094.13;;;27.07;38.53
50093;BME280;35974;47.752;10.290;2022-08-11T13:54:48;94104.66;;;27.17;37.41
50093;BME280;35974;47.752;10.290;2022-08-11T13:57:17;94095.66;;;27.35;37.93
50093;BME280;35974;47.752;10.290;2022-08-11T14:00:07;94108.06;;;27.45;37.78
50093;BME280;35974;47.752;10.290;2022-08-11T14:02:50;94109.81;;;27.27;37.31
50093;BME280;35974;47.752;10.290;2022-08-11T14:05:24;94101.25;;;27.25;35.78
50093;BME280;35974;47.752;10.290;2022-08-11T14:07:55;94115.19;;;27.13;36.49
50093;BME280;35974;47.752;10.290;2022-08-11T14:10:29;94087.63;;;26.85;37.88
50093;BME280;35974;47.752;10.290;2022-08-11T14:13:00;94109.69;;;26.96;37.33
50093;BME280;35974;47.752;10.290;2022-08-11T14:15:49;94074.31;;;26.24;38.26
50093;BME280;35974;47.752;10.290;2022-08-11T14:18:20;94071.50;;;26.57;38.38
50093;BME280;35974;47.752;10.290;2022-08-11T14:20:52;94083.00;;;26.99;38.38
50093;BME280;35974;47.752;10.290;2022-08-11T14:23:39;94065.84;;;27.23;38.11
50093;BME280;35974;47.752;10.290;2022-08-11T14:26:08;94077.56;;;27.27;36.62
50093;BME280;35974;47.752;10.290;2022-08-11T14:29:05;94090.91;;;27.32;36.87
50093;BME280;35974;47.752;10.290;2022-08-11T14:31:37;94059.78;;;26.81;37.96
50093;BME280;35974;47.752;10.290;2022-08-11T14:34:09;94089.34;;;27.03;38.47
50093;BME280;35974;47.752;10.290;2022-08-11T14:36:41;94089.69;;;27.25;36.95
50093;BME280;35974;47.752;10.290;2022-08-11T14:39:22;94070.53;;;27.31;37.78
50093;BME280;35974;47.752;10.290;2022-08-11T14:41:56;94061.69;;;27.17;36.27
50093;BME280;35974;47.752;10.290;2022-08-11T14:44:44;94056.44;;;27.12;36.04
50093;BME280;35974;47.752;10.290;2022-08-11T14:47:36;94075.34;;;27.29;36.60
50093;BME280;35974;47.752;10.290;2022-08-11T14:50:07;94080.44;;;27.67;35.99
50093;BME280;35974;47.752;10.290;2022-08-11T14:53:00;94081.94;;;27.82;37.19
50093;BME280;35974;47.752;10.290;2022-08-11T14:55:28;94068.78;;;27.81;35.83
50093;BME280;35974;47.752;10.290;2022-08-11T14:58:23;94067.13;;;27.62;35.05
50093;BME280;35974;47.752;10.290;2022-08-11T15:00:52;94085.19;;;27.70;35.91
50093;BME280;35974;47.752;10.290;2022-08-11T15:03:20;94066.00;;;27.40;35.65
50093;BME280;35974;47.752;10.290;2022-08-11T15:05:57;94059.34;;;27.38;35.82
50093;BME280;35974;47.752;10.290;2022-08-11T15:08:30;94070.06;;;27.01;36.45
50093;BME280;35974;47.752;10.290;2022-08-11T15:11:18;94058.97;;;26.94;38.37
50093;BME280;35974;47.752;10.290;2022-08-11T15:14:07;94073.75;;;27.06;37.43
50093;BME280;35974;47.752;10.290;2022-08-11T15:16:40;94071.81;;;27.20;36.41
50093;BME280;35974;47.752;10.290;2022-08-11T15:19:29;94071.19;;;27.37;37.09
50093;BME280;35974;47.752;10.290;2022-08-11T15:22:07;94072.09;;;27.55;37.84
50093;BME280;35974;47.752;10.290;2022-08-11T15:24:55;94046.31;;;27.76;36.71
50093;BME280;35974;47.752;10.290;2022-08-11T15:27:23;94063.88;;;28.05;36.69
50093;BME280;35974;47.752;10.290;2022-08-11T15:30:09;94045.28;;;28.18;36.17
50093;BME280;35974;47.752;10.290;2022-08-11T15:33:06;94045.53;;;28.47;34.26
50093;BME280;35974;47.752;10.290;2022-08-11T15:35:53;94040.50;;;28.55;35.57
50093;BME280;35974;47.752;10.290;2022-08-11T15:38:45;94034.56;;;28.35;35.14
50093;BME280;35974;47.752;10.290;2022-08-11T15:41:14;94033.00;;;28.34;34.80
50093;BME280;35974;47.752;10.290;2022-08-11T15:44:05;94039.28;;;28.21;33.71
50093;BME280;35974;47.752;10.290;2022-08-11T15:47:10;94015.09;;;27.67;35.48
50093;BME280;35974;47.752;10.290;2022-08-11T15:49:40;94038.66;;;27.92;34.69
50093;BME280;35974;47.752;10.290;2022-08-11T15:52:33;94043.13;;;27.74;35.69
50093;BME280;35974;47.752;10.290;2022-08-11T15:55:05;94045.59;;;27.62;35.43
50093;BME280;35974;47.752;10.290;2022-08-11T15:57:46;94028.25;;;27.23;34.82
50093;BME280;35974;47.752;10.290;2022-08-11T16:00:35;94016.38;;;27.01;35.93
50093;BME280;35974;47.752;10.290;2022-08-11T16:03:38;94038.66;;;27.02;36.06
50093;BME280;35974;47.752;10.290;2022-08-11T16:06:48;94036.88;;;26.97;36.54
50093;BME280;35974;47.752;10.290;2022-08-11T16:09:19;94005.50;;;26.56;36.58
50093;BME280;35974;47.752;10.290;2022-08-11T16:11:48;94006.94;;;26.40;36.40
50093;BME280;35974;47.752;10.290;2022-08-11T16:14:16;94009.50;;;26.59;36.35
50093;BME280;35974;47.752;10.290;2022-08-11T16:17:04;94008.31;;;26.51;37.25
50093;BME280;35974;47.752;10.290;2022-08-11T16:19:32;94001.16;;;26.60;36.86
50093;BME280;35974;47.752;10.290;2022-08-11T16:22:04;94017.44;;;26.78;36.70
50093;BME280;35974;47.752;10.290;2022-08-11T16:24:34;93996.56;;;26.75;36.37
50093;BME280;35974;47.752;10.290;2022-08-11T16:27:23;94006.28;;;26.84;36.72
50093;BME280;35974;47.752;10.290;2022-08-11T16:29:50;94005.75;;;26.96;36.80
50093;BME280;35974;47.752;10.290;2022-08-11T16:32:40;94008.19;;;27.07;37.23
50093;BME280;35974;47.752;10.290;2022-08-11T16:35:13;94010.78;;;27.12;36.29
50093;BME280;35974;47.752;10.290;2022-08-11T16:38:02;93946.88;;;26.63;36.54
50093;BME280;35974;47.752;10.290;2022-08-11T16:40:56;93972.66;;;27.10;36.94
50093;BME280;35974;47.752;10.290;2022-08-11T16:43:28;93982.69;;;27.18;35.79
50093;BME280;35974;47.752;10.290;2022-08-11T16:46:17;94011.31;;;27.22;37.27
50093;BME280;35974;47.752;10.290;2022-08-11T16:49:15;93981.94;;;27.03;36.14